createdAt,value
2023-02-19T00:01:19.908Z,58.53
2023-02-19T00:03:46.223Z,58.38
2023-02-19T00:06:12.547Z,58.47
2023-02-19T00:08:38.846Z,59.31
2023-02-19T00:11:05.116Z,59.38
2023-02-19T00:13:31.421Z,57.94
2023-02-19T00:15:57.763Z,58.50
2023-02-19T00:18:24.075Z,59.74
2023-02-19T00:20:50.385Z,59.26
2023-02-19T00:23:16.680Z,58.83
2023-02-19T00:25:42.968Z,58.78
2023-02-19T00:28:09.273Z,59.25
2023-02-19T00:30:35.567Z,59.99
2023-02-19T00:33:01.855Z,58.42
2023-02-19T00:35:28.167Z,58.26
2023-02-19T00:37:54.447Z,59.46
2023-02-19T00:40:20.735Z,59.04
2023-02-19T00:42:47.035Z,58.77
2023-02-19T00:45:13.324Z,58.65
2023-02-19T00:47:39.597Z,58.84
2023-02-19T00:50:05.880Z,58.94
2023-02-19T00:52:32.161Z,59.61
2023-02-19T00:54:58.446Z,60.16
2023-02-19T00:57:24.747Z,59.65
2023-02-19T00:59:51.019Z,60.50
2023-02-19T01:02:17.290Z,60.37
2023-02-19T01:04:43.661Z,59.84
2023-02-19T01:07:10.181Z,59.58
2023-02-19T01:09:36.463Z,59.74
2023-02-19T01:12:02.752Z,60.20
2023-02-19T01:14:29.033Z,59.60
2023-02-19T01:16:55.319Z,60.03
2023-02-19T01:19:21.609Z,59.29
2023-02-19T01:21:47.892Z,59.20
2023-02-19T01:24:14.181Z,59.92
2023-02-19T01:26:40.489Z,60.13
2023-02-19T01:29:06.757Z,60.62
2023-02-19T01:31:33.100Z,61.05
2023-02-19T01:33:59.452Z,60.55
2023-02-19T01:36:25.737Z,61.58
2023-02-19T01:38:52.154Z,60.32
2023-02-19T01:41:18.446Z,59.49
2023-02-19T01:43:44.733Z,59.30
2023-02-19T01:46:11.087Z,60.07
2023-02-19T01:48:37.421Z,59.79
2023-02-19T01:51:03.707Z,59.21
2023-02-19T01:53:29.985Z,58.93
2023-02-19T01:55:56.288Z,59.80
2023-02-19T01:58:22.682Z,58.87
2023-02-19T02:00:49.031Z,58.36
2023-02-19T02:03:15.356Z,59.40
2023-02-19T02:05:41.647Z,59.03
2023-02-19T02:08:07.939Z,57.93
2023-02-19T02:10:34.282Z,58.42
2023-02-19T02:13:00.569Z,57.38
2023-02-19T02:15:26.847Z,57.87
2023-02-19T02:17:53.137Z,56.59
2023-02-19T02:20:19.419Z,56.53
2023-02-19T02:22:45.699Z,57.21
2023-02-19T02:25:12.025Z,58.67
2023-02-19T02:27:38.440Z,59.49
2023-02-19T02:30:04.747Z,59.71
2023-02-19T02:32:31.078Z,57.99
2023-02-19T02:34:57.378Z,57.72
2023-02-19T02:37:23.656Z,56.49
2023-02-19T02:39:49.939Z,56.06
2023-02-19T02:42:16.224Z,55.99
2023-02-19T02:44:42.510Z,56.57
2023-02-19T02:47:08.813Z,56.65
2023-02-19T02:49:35.109Z,56.95
2023-02-19T02:52:01.388Z,57.04
2023-02-19T02:54:27.698Z,56.65
2023-02-19T02:56:53.992Z,57.09
2023-02-19T02:59:20.274Z,57.07
2023-02-19T03:01:46.578Z,57.48
2023-02-19T03:04:12.848Z,57.59
2023-02-19T03:06:39.121Z,57.15
2023-02-19T03:09:05.428Z,57.50
2023-02-19T03:11:33.322Z,56.99
2023-02-19T03:13:59.596Z,57.59
2023-02-19T03:16:25.958Z,56.63
2023-02-19T03:18:52.258Z,56.31
2023-02-19T03:21:18.537Z,56.23
2023-02-19T03:23:44.851Z,57.19
2023-02-19T03:26:11.140Z,57.16
2023-02-19T03:28:37.432Z,58.17
2023-02-19T03:31:03.725Z,57.81
2023-02-19T03:33:30.021Z,57.86
2023-02-19T03:35:56.298Z,56.57
2023-02-19T03:38:22.601Z,57.51
2023-02-19T03:40:48.884Z,57.67
2023-02-19T03:43:16.335Z,57.46
2023-02-19T03:45:42.639Z,58.70
2023-02-19T03:48:08.917Z,60.19
2023-02-19T03:50:35.203Z,61.41
2023-02-19T03:53:01.502Z,61.35
2023-02-19T03:55:27.778Z,61.27
2023-02-19T03:57:54.076Z,61.20
2023-02-19T04:00:20.367Z,62.47
2023-02-19T04:02:46.638Z,62.68
2023-02-19T04:05:14.197Z,61.66
2023-02-19T04:07:40.581Z,61.49
2023-02-19T04:10:06.863Z,62.12
2023-02-19T04:12:33.152Z,62.50
2023-02-19T04:15:02.211Z,61.38
2023-02-19T04:17:28.506Z,61.96
2023-02-19T04:19:54.784Z,61.71
2023-02-19T04:22:21.119Z,60.83
2023-02-19T04:24:47.410Z,59.40
2023-02-19T04:27:13.686Z,60.38
2023-02-19T04:29:39.971Z,59.96
2023-02-19T04:32:06.262Z,60.94
2023-02-19T04:34:32.570Z,60.48
2023-02-19T04:36:58.895Z,61.40
2023-02-19T04:39:25.173Z,61.66
2023-02-19T04:41:51.451Z,61.96
2023-02-19T04:44:17.785Z,61.71
2023-02-19T04:46:44.092Z,61.56
2023-02-19T04:49:10.375Z,61.28
2023-02-19T04:51:36.664Z,61.97
2023-02-19T04:54:02.945Z,61.45
2023-02-19T04:56:29.223Z,60.71
2023-02-19T04:58:55.642Z,59.96
2023-02-19T05:01:21.960Z,60.40
2023-02-19T05:03:51.096Z,59.67
2023-02-19T05:06:17.393Z,59.75
2023-02-19T05:08:43.668Z,59.27
2023-02-19T05:11:10.203Z,58.71
2023-02-19T05:13:36.711Z,58.33
2023-02-19T05:16:03.094Z,58.33
2023-02-19T05:18:29.398Z,60.02
2023-02-19T05:20:55.700Z,60.09
2023-02-19T05:23:21.977Z,60.27
2023-02-19T05:25:48.258Z,60.01
2023-02-19T05:28:14.603Z,58.55
2023-02-19T05:30:40.901Z,58.86
2023-02-19T05:33:07.200Z,58.42
2023-02-19T05:35:33.499Z,57.94
2023-02-19T05:37:59.776Z,58.12
2023-02-19T05:40:26.071Z,58.22
2023-02-19T05:42:52.374Z,57.20
2023-02-19T05:45:18.664Z,56.83
2023-02-19T05:47:44.949Z,56.37
2023-02-19T05:50:11.252Z,57.09
2023-02-19T05:52:37.530Z,57.41
2023-02-19T05:55:03.825Z,58.10
2023-02-19T05:57:30.139Z,58.25
2023-02-19T05:59:56.562Z,59.14
2023-02-19T06:02:24.983Z,58.87
2023-02-19T06:04:51.312Z,59.55
2023-02-19T06:07:17.590Z,59.55
2023-02-19T06:09:43.867Z,59.62
2023-02-19T06:12:10.171Z,58.94
2023-02-19T06:14:36.448Z,58.51
2023-02-19T06:17:02.737Z,58.84
2023-02-19T06:19:29.077Z,58.31
2023-02-19T06:21:55.403Z,57.88
2023-02-19T06:24:21.682Z,57.71
2023-02-19T06:26:47.992Z,57.59
2023-02-19T06:29:14.280Z,57.42
2023-02-19T06:31:40.632Z,57.78
2023-02-19T06:34:07.056Z,57.17
2023-02-19T06:36:33.361Z,57.15
2023-02-19T06:38:59.639Z,57.33
2023-02-19T06:41:25.925Z,57.59
2023-02-19T06:43:52.196Z,57.69
2023-02-19T06:46:18.528Z,58.21
2023-02-19T06:48:44.864Z,59.13
2023-02-19T06:51:11.337Z,61.25
2023-02-19T06:53:37.806Z,57.76
2023-02-19T06:56:04.134Z,57.57
2023-02-19T06:58:30.437Z,58.33
2023-02-19T07:00:56.808Z,59.47
2023-02-19T07:03:23.132Z,58.68
2023-02-19T07:05:49.410Z,59.01
2023-02-19T07:08:15.716Z,58.73
2023-02-19T07:10:42.011Z,58.88
2023-02-19T07:13:08.294Z,59.08
2023-02-19T07:15:34.576Z,58.02
2023-02-19T07:18:00.879Z,58.94
2023-02-19T07:20:27.163Z,61.64
2023-02-19T07:22:53.457Z,60.69
2023-02-19T07:25:19.871Z,59.91
2023-02-19T07:27:46.148Z,59.99
2023-02-19T07:30:12.453Z,60.32
2023-02-19T07:32:38.782Z,61.82
2023-02-19T07:35:05.058Z,61.30
2023-02-19T07:37:31.340Z,61.64
2023-02-19T07:39:58.098Z,62.85
2023-02-19T07:42:24.384Z,60.90
2023-02-19T07:44:50.674Z,60.44
2023-02-19T07:47:16.964Z,59.98
2023-02-19T07:49:43.234Z,60.56
2023-02-19T07:52:09.513Z,60.11
2023-02-19T07:54:35.807Z,60.78
2023-02-19T07:57:02.097Z,59.42
2023-02-19T07:59:28.384Z,59.97
2023-02-19T08:01:54.693Z,59.24
2023-02-19T08:04:20.982Z,59.92
2023-02-19T08:06:47.273Z,58.91
2023-02-19T08:09:13.584Z,58.26
2023-02-19T08:11:39.863Z,59.72
2023-02-19T08:14:06.135Z,57.46
2023-02-19T08:16:42.462Z,58.31
2023-02-19T08:19:09.096Z,58.29
2023-02-19T08:21:35.410Z,57.53
2023-02-19T08:24:01.696Z,56.28
2023-02-19T08:26:30.980Z,55.10
2023-02-19T08:28:57.296Z,56.09
2023-02-19T08:31:24.313Z,55.49
2023-02-19T08:33:51.004Z,55.00
2023-02-19T08:36:17.316Z,54.39
2023-02-19T08:38:43.608Z,55.54
2023-02-19T08:41:10.284Z,52.86
2023-02-19T08:43:36.800Z,53.05
2023-02-19T08:46:03.106Z,53.69
2023-02-19T08:48:29.408Z,53.28
2023-02-19T08:50:55.735Z,51.91
2023-02-19T08:53:22.012Z,51.96
2023-02-19T08:55:48.293Z,53.60
2023-02-19T08:58:14.591Z,53.43
2023-02-19T09:00:40.879Z,51.86
2023-02-19T09:03:07.151Z,52.69
2023-02-19T09:05:33.443Z,50.19
2023-02-19T09:07:59.707Z,50.56
2023-02-19T09:10:25.984Z,49.33
2023-02-19T09:12:52.257Z,50.30
2023-02-19T09:15:18.560Z,48.30
2023-02-19T09:17:44.832Z,49.70
2023-02-19T09:20:11.129Z,48.49
2023-02-19T09:22:37.410Z,47.16
2023-02-19T09:25:03.707Z,46.79
2023-02-19T09:27:30.018Z,47.52
2023-02-19T09:29:56.296Z,47.45
2023-02-19T09:32:22.579Z,48.01
2023-02-19T09:34:48.879Z,46.76
2023-02-19T09:37:15.163Z,46.23
2023-02-19T09:39:41.435Z,46.81
2023-02-19T09:42:07.732Z,46.81
2023-02-19T09:44:34.014Z,47.72
2023-02-19T09:47:00.284Z,46.53
2023-02-19T09:49:26.650Z,45.21
2023-02-19T09:51:52.919Z,44.75
2023-02-19T09:54:19.210Z,45.37
2023-02-19T09:56:45.501Z,47.01
2023-02-19T09:59:12.013Z,45.15
2023-02-19T10:01:38.319Z,44.99
2023-02-19T10:04:04.645Z,43.01
2023-02-19T10:06:30.938Z,45.14
2023-02-19T10:08:57.221Z,44.44
2023-02-19T10:11:23.502Z,43.87
2023-02-19T10:13:49.790Z,43.00
2023-02-19T10:16:16.126Z,43.75
2023-02-19T10:18:42.480Z,43.99
2023-02-19T10:21:09.042Z,43.04
2023-02-19T10:23:35.535Z,42.80
2023-02-19T10:26:01.833Z,42.39
2023-02-19T10:28:28.144Z,42.66
2023-02-19T10:30:54.467Z,43.94
2023-02-19T10:33:20.775Z,42.50
2023-02-19T10:35:47.054Z,43.66
2023-02-19T10:38:13.331Z,41.47
2023-02-19T10:40:39.624Z,41.24
2023-02-19T10:43:05.902Z,41.98
2023-02-19T10:45:32.190Z,42.55
2023-02-19T10:47:58.479Z,41.96
2023-02-19T10:50:24.777Z,42.68
2023-02-19T10:52:51.068Z,42.01
2023-02-19T10:55:19.435Z,42.28
2023-02-19T10:57:45.710Z,41.89
2023-02-19T11:00:12.011Z,43.61
2023-02-19T11:02:38.323Z,43.43
2023-02-19T11:05:04.611Z,41.21
2023-02-19T11:07:30.914Z,41.65
2023-02-19T11:09:57.200Z,42.11
2023-02-19T11:12:23.473Z,40.89
2023-02-19T11:14:49.740Z,41.23
2023-02-19T11:17:16.172Z,41.29
2023-02-19T11:19:42.470Z,41.55
2023-02-19T11:22:08.773Z,41.49
2023-02-19T11:24:35.168Z,40.48
2023-02-19T11:27:01.482Z,40.86
2023-02-19T11:29:27.771Z,38.89
2023-02-19T11:31:54.139Z,39.43
2023-02-19T11:34:20.601Z,39.11
2023-02-19T11:36:46.889Z,39.70
2023-02-19T11:39:13.187Z,40.25
2023-02-19T11:41:39.482Z,40.34
2023-02-19T11:44:05.760Z,39.65
2023-02-19T11:46:32.091Z,39.66
2023-02-19T11:48:58.387Z,39.42
2023-02-19T11:51:24.674Z,39.83
2023-02-19T11:53:50.973Z,42.58
2023-02-19T11:56:17.266Z,39.75
2023-02-19T11:58:43.547Z,39.18
2023-02-19T12:01:10.214Z,37.92
2023-02-19T12:03:36.691Z,37.58
2023-02-19T12:06:02.983Z,39.29
2023-02-19T12:08:29.338Z,39.34
2023-02-19T12:10:55.654Z,38.80
2023-02-19T12:13:21.929Z,40.57
2023-02-19T12:15:48.232Z,40.34
2023-02-19T12:18:14.517Z,40.84
2023-02-19T12:20:40.809Z,40.15
2023-02-19T12:23:07.165Z,40.33
2023-02-19T12:25:34.763Z,39.69
2023-02-19T12:28:01.231Z,40.29
2023-02-19T12:30:27.629Z,40.67
2023-02-19T12:32:53.940Z,38.45
2023-02-19T12:35:20.217Z,40.29
2023-02-19T12:37:46.538Z,38.98
2023-02-19T12:40:12.849Z,38.88
2023-02-19T12:42:39.129Z,39.91
2023-02-19T12:45:05.436Z,40.98
2023-02-19T12:47:31.721Z,40.31
2023-02-19T12:49:58.030Z,41.17
2023-02-19T12:52:24.318Z,42.14
2023-02-19T12:54:50.606Z,39.88
2023-02-19T12:57:16.899Z,38.61
2023-02-19T12:59:43.213Z,39.36
2023-02-19T13:02:09.540Z,39.25
2023-02-19T13:04:35.835Z,39.86
2023-02-19T13:07:02.169Z,38.88
2023-02-19T13:09:28.468Z,39.38
2023-02-19T13:11:54.791Z,39.50
2023-02-19T13:14:21.126Z,40.60
2023-02-19T13:16:47.457Z,38.50
2023-02-19T13:19:13.793Z,38.51
2023-02-19T13:21:40.100Z,38.07
2023-02-19T13:24:06.373Z,38.69
2023-02-19T13:26:32.655Z,39.59
2023-02-19T13:28:58.955Z,39.77
2023-02-19T13:31:25.369Z,40.82
2023-02-19T13:33:51.674Z,39.85
2023-02-19T13:36:17.973Z,39.15
2023-02-19T13:38:44.251Z,39.61
2023-02-19T13:41:10.832Z,39.18
2023-02-19T13:43:37.330Z,38.75
2023-02-19T13:46:03.646Z,40.40
2023-02-19T13:48:29.953Z,38.70
2023-02-19T13:50:56.241Z,38.49
2023-02-19T13:53:22.510Z,38.94
2023-02-19T13:55:48.781Z,37.98
2023-02-19T13:58:15.074Z,39.70
2023-02-19T14:00:41.363Z,39.44
2023-02-19T14:03:07.657Z,38.53
2023-02-19T14:05:33.954Z,38.04
2023-02-19T14:08:00.229Z,39.18
2023-02-19T14:10:26.499Z,39.36
2023-02-19T14:12:52.835Z,39.17
2023-02-19T14:15:19.115Z,41.19
2023-02-19T14:17:45.389Z,42.16
2023-02-19T14:20:11.768Z,41.41
2023-02-19T14:22:38.058Z,42.70
2023-02-19T14:25:04.346Z,43.58
2023-02-19T14:27:30.631Z,45.89
2023-02-19T14:29:56.916Z,45.30
2023-02-19T14:32:23.413Z,45.11
2023-02-19T14:34:50.248Z,43.75
2023-02-19T14:37:16.513Z,45.10
2023-02-19T14:39:42.813Z,44.27
2023-02-19T14:42:09.122Z,44.96
2023-02-19T14:44:35.398Z,45.69
2023-02-19T14:47:01.700Z,45.39
2023-02-19T14:49:28.052Z,45.25
2023-02-19T14:51:54.367Z,44.56
2023-02-19T14:54:20.683Z,45.33
2023-02-19T14:56:47.033Z,45.05
2023-02-19T14:59:13.313Z,44.92
2023-02-19T15:01:39.746Z,45.85
2023-02-19T15:04:06.086Z,46.02
2023-02-19T15:06:32.364Z,45.39
2023-02-19T15:08:58.644Z,45.65
2023-02-19T15:11:24.949Z,45.03
2023-02-19T15:13:51.230Z,45.11
2023-02-19T15:16:17.550Z,47.15
2023-02-19T15:18:43.916Z,47.80
2023-02-19T15:21:10.503Z,47.20
2023-02-19T15:23:36.896Z,47.50
2023-02-19T15:26:03.202Z,48.04
2023-02-19T15:28:29.502Z,47.47
2023-02-19T15:30:55.814Z,48.29
2023-02-19T15:33:22.132Z,48.82
2023-02-19T15:35:48.423Z,49.74
2023-02-19T15:38:14.765Z,48.63
2023-02-19T15:40:41.060Z,48.77
2023-02-19T15:43:07.484Z,48.72
2023-02-19T15:45:33.765Z,48.52
2023-02-19T15:48:00.099Z,49.06
2023-02-19T15:50:26.386Z,50.47
2023-02-19T15:52:52.689Z,49.38
2023-02-19T15:55:18.994Z,49.93
2023-02-19T15:57:45.272Z,49.24
2023-02-19T16:00:11.605Z,48.76
2023-02-19T16:02:37.927Z,50.06
2023-02-19T16:05:04.231Z,49.21
2023-02-19T16:07:31.113Z,50.39
2023-02-19T16:09:57.423Z,49.36
2023-02-19T16:12:23.693Z,50.69
2023-02-19T16:14:49.989Z,50.14
2023-02-19T16:17:16.366Z,50.65
2023-02-19T16:19:42.646Z,49.32
2023-02-19T16:22:08.925Z,50.55
2023-02-19T16:24:35.265Z,49.72
2023-02-19T16:27:01.556Z,49.32
2023-02-19T16:29:27.848Z,49.42
2023-02-19T16:31:54.180Z,50.26
2023-02-19T16:34:20.506Z,49.66
2023-02-19T16:36:46.790Z,51.80
2023-02-19T16:39:13.092Z,52.85
2023-02-19T16:41:39.372Z,51.91
2023-02-19T16:44:05.645Z,51.42
2023-02-19T16:46:31.943Z,51.17
2023-02-19T16:48:58.221Z,53.21
2023-02-19T16:51:24.666Z,52.96
2023-02-19T16:53:50.974Z,52.48
2023-02-19T16:56:17.263Z,51.91
2023-02-19T16:58:43.636Z,50.98
2023-02-19T17:01:10.207Z,50.86
2023-02-19T17:03:36.700Z,52.09
2023-02-19T17:06:03.017Z,52.38
2023-02-19T17:08:29.300Z,52.27
2023-02-19T17:10:56.285Z,53.51
2023-02-19T17:13:22.626Z,53.02
2023-02-19T17:15:48.991Z,53.13
2023-02-19T17:18:15.268Z,51.38
2023-02-19T17:20:41.562Z,52.09
2023-02-19T17:23:07.861Z,51.63
2023-02-19T17:25:34.133Z,49.41
2023-02-19T17:28:00.419Z,49.44
2023-02-19T17:30:26.812Z,49.55
2023-02-19T17:32:53.132Z,50.05
2023-02-19T17:35:19.419Z,49.98
2023-02-19T17:37:45.705Z,49.49
2023-02-19T17:40:12.823Z,48.96
2023-02-19T17:42:40.160Z,49.12
2023-02-19T17:45:06.436Z,50.16
2023-02-19T17:47:32.706Z,49.01
2023-02-19T17:49:58.987Z,49.94
2023-02-19T17:52:25.335Z,50.73
2023-02-19T17:54:51.613Z,50.98
2023-02-19T17:57:17.891Z,51.25
2023-02-19T17:59:44.169Z,50.23
2023-02-19T18:02:10.459Z,49.92
2023-02-19T18:04:37.966Z,50.20
2023-02-19T18:07:05.294Z,48.17
2023-02-19T18:09:31.575Z,49.16
2023-02-19T18:11:57.856Z,47.97
2023-02-19T18:14:24.155Z,49.53
2023-02-19T18:16:50.833Z,48.64
2023-02-19T18:19:17.233Z,48.52
2023-02-19T18:21:43.532Z,48.58
2023-02-19T18:24:09.805Z,48.53
2023-02-19T18:26:36.087Z,48.11
2023-02-19T18:29:02.392Z,49.11
2023-02-19T18:31:28.713Z,49.49
2023-02-19T18:33:55.018Z,50.43
2023-02-19T18:36:21.364Z,50.00
2023-02-19T18:38:47.643Z,51.45
2023-02-19T18:41:14.352Z,51.53
2023-02-19T18:43:40.930Z,51.14
2023-02-19T18:46:07.232Z,51.05
2023-02-19T18:48:33.520Z,50.09
2023-02-19T18:50:59.822Z,49.72
2023-02-19T18:53:26.102Z,48.41
2023-02-19T18:55:52.375Z,49.43
2023-02-19T18:58:18.701Z,49.91
2023-02-19T19:00:44.999Z,49.75
2023-02-19T19:03:11.292Z,49.46
2023-02-19T19:05:37.583Z,49.74
2023-02-19T19:08:03.864Z,50.63
2023-02-19T19:10:30.145Z,49.80
2023-02-19T19:12:56.454Z,48.91
2023-02-19T19:15:22.741Z,49.98
2023-02-19T19:17:49.029Z,49.81
2023-02-19T19:20:15.334Z,49.70
2023-02-19T19:22:41.629Z,49.47
2023-02-19T19:25:07.918Z,49.22
2023-02-19T19:27:34.225Z,49.08
2023-02-19T19:30:00.557Z,50.29
2023-02-19T19:32:26.862Z,49.73
2023-02-19T19:34:53.181Z,48.35
2023-02-19T19:37:19.483Z,47.35
2023-02-19T19:39:45.766Z,49.72
2023-02-19T19:42:12.101Z,50.95
2023-02-19T19:44:38.421Z,50.93
2023-02-19T19:47:04.707Z,50.04
2023-02-19T19:49:31.002Z,49.83
2023-02-19T19:51:58.619Z,51.38
2023-02-19T19:54:24.984Z,51.15
2023-02-19T19:56:51.293Z,49.96
2023-02-19T19:59:17.584Z,51.11
2023-02-19T20:01:43.908Z,50.42
2023-02-19T20:04:10.250Z,49.86
2023-02-19T20:06:36.525Z,50.72
2023-02-19T20:09:02.834Z,49.89
2023-02-19T20:11:29.144Z,50.16
2023-02-19T20:13:55.439Z,50.63
2023-02-19T20:16:21.727Z,50.83
2023-02-19T20:18:48.027Z,50.67
2023-02-19T20:21:14.679Z,51.29
2023-02-19T20:23:41.088Z,51.21
2023-02-19T20:26:07.382Z,48.99
2023-02-19T20:28:33.798Z,49.23
2023-02-19T20:31:00.130Z,49.24
2023-02-19T20:33:26.458Z,52.01
2023-02-19T20:35:52.737Z,51.53
2023-02-19T20:38:19.031Z,52.02
2023-02-19T20:40:45.349Z,49.64
2023-02-19T20:43:11.632Z,51.14
2023-02-19T20:45:37.916Z,51.85
2023-02-19T20:48:04.263Z,51.34
2023-02-19T20:50:30.578Z,51.78
2023-02-19T20:52:56.861Z,52.36
2023-02-19T20:55:25.997Z,51.71
2023-02-19T20:57:52.299Z,51.91
2023-02-19T21:00:18.583Z,52.66
2023-02-19T21:02:44.932Z,52.28
2023-02-19T21:05:11.278Z,53.72
2023-02-19T21:07:37.561Z,53.34
2023-02-19T21:10:03.875Z,53.68
2023-02-19T21:12:30.168Z,53.34
2023-02-19T21:14:56.440Z,52.12
2023-02-19T21:17:22.735Z,51.38
2023-02-19T21:19:50.281Z,51.72
2023-02-19T21:22:16.622Z,52.14
2023-02-19T21:24:42.939Z,52.63
2023-02-19T21:27:09.221Z,53.07
2023-02-19T21:29:35.519Z,52.68
2023-02-19T21:32:01.944Z,52.65
2023-02-19T21:34:28.353Z,53.52
2023-02-19T21:36:54.638Z,54.30
2023-02-19T21:39:20.943Z,53.57
2023-02-19T21:41:47.220Z,55.21
2023-02-19T21:44:13.497Z,56.38
2023-02-19T21:46:39.800Z,57.19
2023-02-19T21:49:06.081Z,55.19
2023-02-19T21:51:32.353Z,55.84
2023-02-19T21:53:59.455Z,55.38
2023-02-19T21:56:25.739Z,54.74
2023-02-19T21:58:53.104Z,56.88
2023-02-19T22:01:19.382Z,56.81
2023-02-19T22:03:45.669Z,56.60
2023-02-19T22:06:12.328Z,57.44
2023-02-19T22:08:38.841Z,56.67
2023-02-19T22:11:05.123Z,55.49
2023-02-19T22:13:31.407Z,54.88
2023-02-19T22:15:57.719Z,55.15
2023-02-19T22:18:23.998Z,54.83
2023-02-19T22:20:50.276Z,56.95
2023-02-19T22:23:16.585Z,60.29
2023-02-19T22:25:42.866Z,58.86
2023-02-19T22:28:09.149Z,58.19
2023-02-19T22:30:35.474Z,57.40
2023-02-19T22:33:01.810Z,58.48
2023-02-19T22:35:28.085Z,57.33
2023-02-19T22:37:54.385Z,58.40
2023-02-19T22:40:20.652Z,58.22
2023-02-19T22:42:46.929Z,58.73
2023-02-19T22:45:13.226Z,57.91
2023-02-19T22:47:39.517Z,56.55
2023-02-19T22:50:05.815Z,57.25
2023-02-19T22:52:32.104Z,57.93
2023-02-19T22:54:58.385Z,57.51
2023-02-19T22:57:24.801Z,58.05
2023-02-19T22:59:51.141Z,57.75
2023-02-19T23:02:17.439Z,55.72
2023-02-19T23:04:43.723Z,57.08
2023-02-19T23:07:10.094Z,56.05
2023-02-19T23:09:36.436Z,56.01
2023-02-19T23:12:02.730Z,58.03
2023-02-19T23:14:29.052Z,58.57
2023-02-19T23:16:55.410Z,59.57
2023-02-19T23:19:21.740Z,59.07
2023-02-19T23:21:48.422Z,58.79
2023-02-19T23:24:14.702Z,56.68
2023-02-19T23:26:40.977Z,56.50
2023-02-19T23:29:07.268Z,55.33
2023-02-19T23:31:33.593Z,55.35
2023-02-19T23:33:59.911Z,57.70
2023-02-19T23:36:26.207Z,57.74
2023-02-19T23:38:52.490Z,58.54
2023-02-19T23:41:18.863Z,59.59
2023-02-19T23:43:45.151Z,58.32
2023-02-19T23:46:11.804Z,59.47
2023-02-19T23:48:38.441Z,58.22
2023-02-19T23:51:04.742Z,60.42
2023-02-19T23:53:31.036Z,58.83
2023-02-19T23:55:57.317Z,59.79
2023-02-19T23:58:23.612Z,59.04
